sensor_id;sensor_type;location;lat;lon;timestamp;temperature;humidity
46754;DHT22;32500;50.620;3.400;2024-01-30T00:01:25;16.10;68.30
46754;DHT22;32500;50.620;3.400;2024-01-30T00:03:51;16.10;68.40
46754;DHT22;32500;50.620;3.400;2024-01-30T00:06:20;16.10;68.40
46754;DHT22;32500;50.620;3.400;2024-01-30T00:08:49;16.10;68.50
46754;DHT22;32500;50.620;3.400;2024-01-30T00:11:15;16.10;68.40
46754;DHT22;32500;50.620;3.400;2024-01-30T00:13:41;16.00;68.40
46754;DHT22;32500;50.620;3.400;2024-01-30T00:16:07;16.10;68.50
46754;DHT22;32500;50.620;3.400;2024-01-30T00:18:34;16.00;68.40
46754;DHT22;32500;50.620;3.400;2024-01-30T00:21:00;16.00;68.50
46754;DHT22;32500;50.620;3.400;2024-01-30T00:23:26;16.00;68.40
46754;DHT22;32500;50.620;3.400;2024-01-30T00:25:51;16.00;68.50
46754;DHT22;32500;50.620;3.400;2024-01-30T00:28:17;16.00;68.50
46754;DHT22;32500;50.620;3.400;2024-01-30T00:30:42;16.00;68.50
46754;DHT22;32500;50.620;3.400;2024-01-30T00:33:09;16.00;68.50
46754;DHT22;32500;50.620;3.400;2024-01-30T00:35:34;16.00;68.50
46754;DHT22;32500;50.620;3.400;2024-01-30T00:38:00;15.90;68.60
46754;DHT22;32500;50.620;3.400;2024-01-30T00:40:26;15.90;68.50
46754;DHT22;32500;50.620;3.400;2024-01-30T00:42:52;15.90;68.60
46754;DHT22;32500;50.620;3.400;2024-01-30T00:45:18;15.90;68.70
46754;DHT22;32500;50.620;3.400;2024-01-30T00:47:44;15.90;68.70
46754;DHT22;32500;50.620;3.400;2024-01-30T00:50:10;15.90;68.70
46754;DHT22;32500;50.620;3.400;2024-01-30T00:52:36;15.90;68.70
46754;DHT22;32500;50.620;3.400;2024-01-30T00:55:02;15.90;68.70
46754;DHT22;32500;50.620;3.400;2024-01-30T00:57:28;15.90;68.80
46754;DHT22;32500;50.620;3.400;2024-01-30T00:59:54;15.90;68.80
46754;DHT22;32500;50.620;3.400;2024-01-30T01:02:20;15.90;68.80
46754;DHT22;32500;50.620;3.400;2024-01-30T01:04:45;15.90;68.90
46754;DHT22;32500;50.620;3.400;2024-01-30T01:07:11;15.80;68.80
46754;DHT22;32500;50.620;3.400;2024-01-30T01:09:37;15.90;68.80
46754;DHT22;32500;50.620;3.400;2024-01-30T01:12:03;15.90;68.90
46754;DHT22;32500;50.620;3.400;2024-01-30T01:14:30;15.90;68.90
46754;DHT22;32500;50.620;3.400;2024-01-30T01:16:55;15.80;68.90
46754;DHT22;32500;50.620;3.400;2024-01-30T01:19:21;15.80;68.90
46754;DHT22;32500;50.620;3.400;2024-01-30T01:21:47;15.80;68.90
46754;DHT22;32500;50.620;3.400;2024-01-30T01:24:13;15.80;68.90
46754;DHT22;32500;50.620;3.400;2024-01-30T01:26:39;15.80;68.90
46754;DHT22;32500;50.620;3.400;2024-01-30T01:29:06;15.80;69.00
46754;DHT22;32500;50.620;3.400;2024-01-30T01:31:36;15.80;69.00
46754;DHT22;32500;50.620;3.400;2024-01-30T01:34:06;15.70;68.90
46754;DHT22;32500;50.620;3.400;2024-01-30T01:36:31;15.70;69.00
46754;DHT22;32500;50.620;3.400;2024-01-30T01:38:57;15.80;69.00
46754;DHT22;32500;50.620;3.400;2024-01-30T01:41:22;15.70;69.00
46754;DHT22;32500;50.620;3.400;2024-01-30T01:43:48;15.70;69.00
46754;DHT22;32500;50.620;3.400;2024-01-30T01:46:14;15.70;68.90
46754;DHT22;32500;50.620;3.400;2024-01-30T01:48:41;15.70;69.10
46754;DHT22;32500;50.620;3.400;2024-01-30T01:51:08;15.70;69.10
46754;DHT22;32500;50.620;3.400;2024-01-30T01:53:35;15.70;69.10
46754;DHT22;32500;50.620;3.400;2024-01-30T01:56:00;15.70;69.10
46754;DHT22;32500;50.620;3.400;2024-01-30T01:58:27;15.70;69.10
46754;DHT22;32500;50.620;3.400;2024-01-30T02:00:54;15.70;69.00
46754;DHT22;32500;50.620;3.400;2024-01-30T02:03:21;15.70;69.00
46754;DHT22;32500;50.620;3.400;2024-01-30T02:05:47;15.70;69.00
46754;DHT22;32500;50.620;3.400;2024-01-30T02:08:13;15.70;69.10
46754;DHT22;32500;50.620;3.400;2024-01-30T02:10:39;15.70;69.00
46754;DHT22;32500;50.620;3.400;2024-01-30T02:13:04;15.60;69.00
46754;DHT22;32500;50.620;3.400;2024-01-30T02:15:30;15.70;69.00
46754;DHT22;32500;50.620;3.400;2024-01-30T02:17:56;15.60;69.00
46754;DHT22;32500;50.620;3.400;2024-01-30T02:20:23;15.60;69.00
46754;DHT22;32500;50.620;3.400;2024-01-30T02:22:51;15.60;68.90
46754;DHT22;32500;50.620;3.400;2024-01-30T02:25:18;15.60;69.00
46754;DHT22;32500;50.620;3.400;2024-01-30T02:27:43;15.60;69.00
46754;DHT22;32500;50.620;3.400;2024-01-30T02:30:09;15.60;69.00
46754;DHT22;32500;50.620;3.400;2024-01-30T02:32:35;15.60;69.00
46754;DHT22;32500;50.620;3.400;2024-01-30T02:35:01;15.60;69.00
46754;DHT22;32500;50.620;3.400;2024-01-30T02:37:26;15.60;68.90
46754;DHT22;32500;50.620;3.400;2024-01-30T02:39:52;15.60;68.90
46754;DHT22;32500;50.620;3.400;2024-01-30T02:42:18;15.60;69.00
46754;DHT22;32500;50.620;3.400;2024-01-30T02:44:43;15.60;69.00
46754;DHT22;32500;50.620;3.400;2024-01-30T02:47:09;15.60;69.00
46754;DHT22;32500;50.620;3.400;2024-01-30T02:49:35;15.60;68.90
46754;DHT22;32500;50.620;3.400;2024-01-30T02:52:00;15.60;68.90
46754;DHT22;32500;50.620;3.400;2024-01-30T02:54:26;15.60;69.00
46754;DHT22;32500;50.620;3.400;2024-01-30T02:56:51;15.60;69.00
46754;DHT22;32500;50.620;3.400;2024-01-30T02:59:17;15.60;69.00
46754;DHT22;32500;50.620;3.400;2024-01-30T03:01:43;15.60;68.90
46754;DHT22;32500;50.620;3.400;2024-01-30T03:04:09;15.60;68.90
46754;DHT22;32500;50.620;3.400;2024-01-30T03:06:36;15.60;69.00
46754;DHT22;32500;50.620;3.400;2024-01-30T03:09:01;15.60;69.00
46754;DHT22;32500;50.620;3.400;2024-01-30T03:11:27;15.60;68.90
46754;DHT22;32500;50.620;3.400;2024-01-30T03:13:53;15.50;68.90
46754;DHT22;32500;50.620;3.400;2024-01-30T03:16:19;15.60;68.90
46754;DHT22;32500;50.620;3.400;2024-01-30T03:18:44;15.60;68.90
46754;DHT22;32500;50.620;3.400;2024-01-30T03:21:10;15.50;68.70
46754;DHT22;32500;50.620;3.400;2024-01-30T03:23:35;15.50;68.70
46754;DHT22;32500;50.620;3.400;2024-01-30T03:26:01;15.60;68.90
46754;DHT22;32500;50.620;3.400;2024-01-30T03:28:27;15.50;68.80
46754;DHT22;32500;50.620;3.400;2024-01-30T03:30:53;15.50;68.70
46754;DHT22;32500;50.620;3.400;2024-01-30T03:33:18;15.50;68.70
46754;DHT22;32500;50.620;3.400;2024-01-30T03:35:44;15.50;68.70
46754;DHT22;32500;50.620;3.400;2024-01-30T03:38:09;15.60;68.80
46754;DHT22;32500;50.620;3.400;2024-01-30T03:40:35;15.50;68.80
46754;DHT22;32500;50.620;3.400;2024-01-30T03:43:01;15.50;68.70
46754;DHT22;32500;50.620;3.400;2024-01-30T03:45:26;15.50;68.70
46754;DHT22;32500;50.620;3.400;2024-01-30T03:47:52;15.50;68.70
46754;DHT22;32500;50.620;3.400;2024-01-30T03:50:17;15.50;68.70
46754;DHT22;32500;50.620;3.400;2024-01-30T03:52:43;15.50;68.70
46754;DHT22;32500;50.620;3.400;2024-01-30T03:55:09;15.50;68.70
46754;DHT22;32500;50.620;3.400;2024-01-30T03:57:34;15.50;68.70
46754;DHT22;32500;50.620;3.400;2024-01-30T04:00:00;15.50;68.60
46754;DHT22;32500;50.620;3.400;2024-01-30T04:02:25;15.50;68.70
46754;DHT22;32500;50.620;3.400;2024-01-30T04:04:51;15.50;68.70
46754;DHT22;32500;50.620;3.400;2024-01-30T04:07:17;15.50;68.70
46754;DHT22;32500;50.620;3.400;2024-01-30T04:09:42;15.50;68.70
46754;DHT22;32500;50.620;3.400;2024-01-30T04:12:08;15.50;68.60
46754;DHT22;32500;50.620;3.400;2024-01-30T04:14:33;15.50;68.60
46754;DHT22;32500;50.620;3.400;2024-01-30T04:17:00;15.40;68.60
46754;DHT22;32500;50.620;3.400;2024-01-30T04:19:26;15.40;68.70
46754;DHT22;32500;50.620;3.400;2024-01-30T04:21:52;15.40;68.60
46754;DHT22;32500;50.620;3.400;2024-01-30T04:24:17;15.40;68.60
46754;DHT22;32500;50.620;3.400;2024-01-30T04:26:44;15.40;68.60
46754;DHT22;32500;50.620;3.400;2024-01-30T04:29:09;15.40;68.50
46754;DHT22;32500;50.620;3.400;2024-01-30T04:31:36;15.40;68.60
46754;DHT22;32500;50.620;3.400;2024-01-30T04:34:02;15.40;68.60
46754;DHT22;32500;50.620;3.400;2024-01-30T04:36:28;15.40;68.60
46754;DHT22;32500;50.620;3.400;2024-01-30T04:38:53;15.40;68.60
46754;DHT22;32500;50.620;3.400;2024-01-30T04:41:19;15.40;68.60
46754;DHT22;32500;50.620;3.400;2024-01-30T04:43:44;15.40;68.60
46754;DHT22;32500;50.620;3.400;2024-01-30T04:46:10;15.40;68.60
46754;DHT22;32500;50.620;3.400;2024-01-30T04:48:36;15.40;68.50
46754;DHT22;32500;50.620;3.400;2024-01-30T04:51:01;15.40;68.50
46754;DHT22;32500;50.620;3.400;2024-01-30T04:53:32;15.40;68.60
46754;DHT22;32500;50.620;3.400;2024-01-30T04:55:58;15.40;68.50
46754;DHT22;32500;50.620;3.400;2024-01-30T04:58:23;15.40;68.50
46754;DHT22;32500;50.620;3.400;2024-01-30T05:00:49;15.40;68.50
46754;DHT22;32500;50.620;3.400;2024-01-30T05:03:18;15.40;68.50
46754;DHT22;32500;50.620;3.400;2024-01-30T05:05:44;15.40;68.60
46754;DHT22;32500;50.620;3.400;2024-01-30T05:08:10;15.30;68.60
46754;DHT22;32500;50.620;3.400;2024-01-30T05:10:35;15.30;68.70
46754;DHT22;32500;50.620;3.400;2024-01-30T05:13:01;15.40;68.70
46754;DHT22;32500;50.620;3.400;2024-01-30T05:15:27;15.40;68.80
46754;DHT22;32500;50.620;3.400;2024-01-30T05:17:52;15.30;68.70
46754;DHT22;32500;50.620;3.400;2024-01-30T05:20:19;15.30;68.80
46754;DHT22;32500;50.620;3.400;2024-01-30T05:22:45;15.30;68.90
46754;DHT22;32500;50.620;3.400;2024-01-30T05:25:12;15.30;69.00
46754;DHT22;32500;50.620;3.400;2024-01-30T05:27:38;15.30;68.90
46754;DHT22;32500;50.620;3.400;2024-01-30T05:30:06;15.30;69.00
46754;DHT22;32500;50.620;3.400;2024-01-30T05:32:32;15.30;69.00
46754;DHT22;32500;50.620;3.400;2024-01-30T05:34:58;15.30;69.00
46754;DHT22;32500;50.620;3.400;2024-01-30T05:37:23;15.30;68.90
46754;DHT22;32500;50.620;3.400;2024-01-30T05:39:49;15.30;68.90
46754;DHT22;32500;50.620;3.400;2024-01-30T05:42:15;15.30;68.90
46754;DHT22;32500;50.620;3.400;2024-01-30T05:44:42;15.30;68.90
46754;DHT22;32500;50.620;3.400;2024-01-30T05:47:08;15.30;69.00
46754;DHT22;32500;50.620;3.400;2024-01-30T05:49:33;15.30;69.00
46754;DHT22;32500;50.620;3.400;2024-01-30T05:52:01;15.30;69.00
46754;DHT22;32500;50.620;3.400;2024-01-30T05:54:27;15.30;68.90
46754;DHT22;32500;50.620;3.400;2024-01-30T05:56:53;15.30;69.00
46754;DHT22;32500;50.620;3.400;2024-01-30T05:59:18;15.30;69.00
46754;DHT22;32500;50.620;3.400;2024-01-30T06:01:47;15.30;68.90
46754;DHT22;32500;50.620;3.400;2024-01-30T06:04:13;15.30;68.90
46754;DHT22;32500;50.620;3.400;2024-01-30T06:06:39;15.40;69.10
46754;DHT22;32500;50.620;3.400;2024-01-30T06:09:05;15.30;69.40
46754;DHT22;32500;50.620;3.400;2024-01-30T06:11:31;15.30;69.40
46754;DHT22;32500;50.620;3.400;2024-01-30T06:13:56;15.40;69.40
46754;DHT22;32500;50.620;3.400;2024-01-30T06:16:22;15.30;69.30
46754;DHT22;32500;50.620;3.400;2024-01-30T06:18:48;15.40;69.50
46754;DHT22;32500;50.620;3.400;2024-01-30T06:21:14;15.40;69.40
46754;DHT22;32500;50.620;3.400;2024-01-30T06:23:39;15.30;69.40
46754;DHT22;32500;50.620;3.400;2024-01-30T06:26:06;15.40;69.60
46754;DHT22;32500;50.620;3.400;2024-01-30T06:28:32;15.40;69.50
46754;DHT22;32500;50.620;3.400;2024-01-30T06:30:58;15.40;69.70
46754;DHT22;32500;50.620;3.400;2024-01-30T06:33:23;15.30;69.90
46754;DHT22;32500;50.620;3.400;2024-01-30T06:35:49;15.40;69.80
46754;DHT22;32500;50.620;3.400;2024-01-30T06:38:15;15.40;69.60
46754;DHT22;32500;50.620;3.400;2024-01-30T06:40:41;15.40;69.40
46754;DHT22;32500;50.620;3.400;2024-01-30T06:43:07;15.40;69.60
46754;DHT22;32500;50.620;3.400;2024-01-30T06:45:33;15.30;69.90
46754;DHT22;32500;50.620;3.400;2024-01-30T06:48:00;15.40;69.90
46754;DHT22;32500;50.620;3.400;2024-01-30T06:50:26;15.30;69.60
46754;DHT22;32500;50.620;3.400;2024-01-30T06:52:51;15.30;69.60
46754;DHT22;32500;50.620;3.400;2024-01-30T06:55:18;15.40;69.60
46754;DHT22;32500;50.620;3.400;2024-01-30T06:57:44;15.40;69.50
46754;DHT22;32500;50.620;3.400;2024-01-30T07:00:10;15.30;69.30
46754;DHT22;32500;50.620;3.400;2024-01-30T07:02:36;15.40;69.30
46754;DHT22;32500;50.620;3.400;2024-01-30T07:05:02;15.40;69.60
46754;DHT22;32500;50.620;3.400;2024-01-30T07:07:28;15.40;69.70
46754;DHT22;32500;50.620;3.400;2024-01-30T07:09:54;15.40;70.20
46754;DHT22;32500;50.620;3.400;2024-01-30T07:12:22;15.40;70.50
46754;DHT22;32500;50.620;3.400;2024-01-30T07:14:50;15.40;70.30
46754;DHT22;32500;50.620;3.400;2024-01-30T07:17:15;15.40;70.30
46754;DHT22;32500;50.620;3.400;2024-01-30T07:19:41;15.40;70.10
46754;DHT22;32500;50.620;3.400;2024-01-30T07:22:08;15.40;70.20
46754;DHT22;32500;50.620;3.400;2024-01-30T07:24:33;15.40;70.10
46754;DHT22;32500;50.620;3.400;2024-01-30T07:26:59;15.40;70.00
46754;DHT22;32500;50.620;3.400;2024-01-30T07:29:25;15.40;70.10
46754;DHT22;32500;50.620;3.400;2024-01-30T07:31:50;15.40;70.00
46754;DHT22;32500;50.620;3.400;2024-01-30T07:34:16;15.40;70.20
46754;DHT22;32500;50.620;3.400;2024-01-30T07:36:42;15.40;70.20
46754;DHT22;32500;50.620;3.400;2024-01-30T07:39:07;15.40;70.90
46754;DHT22;32500;50.620;3.400;2024-01-30T07:41:33;15.30;70.00
46754;DHT22;32500;50.620;3.400;2024-01-30T07:43:59;15.40;70.10
46754;DHT22;32500;50.620;3.400;2024-01-30T07:46:24;15.40;70.00
46754;DHT22;32500;50.620;3.400;2024-01-30T07:51:24;15.40;70.10
46754;DHT22;32500;50.620;3.400;2024-01-30T07:53:49;15.40;70.10
46754;DHT22;32500;50.620;3.400;2024-01-30T07:56:15;15.40;70.00
46754;DHT22;32500;50.620;3.400;2024-01-30T07:58:41;15.40;70.00
46754;DHT22;32500;50.620;3.400;2024-01-30T08:01:09;15.40;70.00
46754;DHT22;32500;50.620;3.400;2024-01-30T08:03:35;15.40;69.90
46754;DHT22;32500;50.620;3.400;2024-01-30T08:06:02;15.40;70.00
46754;DHT22;32500;50.620;3.400;2024-01-30T08:08:28;15.40;70.00
46754;DHT22;32500;50.620;3.400;2024-01-30T08:10:54;15.40;69.90
46754;DHT22;32500;50.620;3.400;2024-01-30T08:13:19;15.40;69.90
46754;DHT22;32500;50.620;3.400;2024-01-30T08:15:45;15.40;69.90
46754;DHT22;32500;50.620;3.400;2024-01-30T08:18:11;15.40;69.90
46754;DHT22;32500;50.620;3.400;2024-01-30T08:20:36;15.40;69.90
46754;DHT22;32500;50.620;3.400;2024-01-30T08:23:02;15.40;69.90
46754;DHT22;32500;50.620;3.400;2024-01-30T08:25:28;15.40;69.80
46754;DHT22;32500;50.620;3.400;2024-01-30T08:27:53;15.40;69.80
46754;DHT22;32500;50.620;3.400;2024-01-30T08:30:19;15.30;69.70
46754;DHT22;32500;50.620;3.400;2024-01-30T08:32:45;15.40;69.70
46754;DHT22;32500;50.620;3.400;2024-01-30T08:35:10;15.40;69.60
46754;DHT22;32500;50.620;3.400;2024-01-30T08:37:39;15.40;69.60
46754;DHT22;32500;50.620;3.400;2024-01-30T08:40:05;15.40;69.50
46754;DHT22;32500;50.620;3.400;2024-01-30T08:42:31;15.40;69.60
46754;DHT22;32500;50.620;3.400;2024-01-30T08:44:56;15.40;69.50
46754;DHT22;32500;50.620;3.400;2024-01-30T08:47:22;15.40;69.70
46754;DHT22;32500;50.620;3.400;2024-01-30T08:49:47;15.40;69.60
46754;DHT22;32500;50.620;3.400;2024-01-30T08:52:13;15.40;69.60
46754;DHT22;32500;50.620;3.400;2024-01-30T08:54:39;15.40;69.50
46754;DHT22;32500;50.620;3.400;2024-01-30T08:57:05;15.40;69.60
46754;DHT22;32500;50.620;3.400;2024-01-30T08:59:31;15.50;69.50
46754;DHT22;32500;50.620;3.400;2024-01-30T09:01:56;15.40;69.40
46754;DHT22;32500;50.620;3.400;2024-01-30T09:04:24;15.50;69.50
46754;DHT22;32500;50.620;3.400;2024-01-30T09:06:50;15.50;69.30
46754;DHT22;32500;50.620;3.400;2024-01-30T09:09:16;15.50;69.20
46754;DHT22;32500;50.620;3.400;2024-01-30T09:11:41;15.50;69.20
46754;DHT22;32500;50.620;3.400;2024-01-30T09:14:07;15.50;69.20
46754;DHT22;32500;50.620;3.400;2024-01-30T09:16:33;15.50;69.00
46754;DHT22;32500;50.620;3.400;2024-01-30T09:18:59;15.50;69.00
46754;DHT22;32500;50.620;3.400;2024-01-30T09:21:25;15.60;69.00
46754;DHT22;32500;50.620;3.400;2024-01-30T09:23:54;15.50;68.90
46754;DHT22;32500;50.620;3.400;2024-01-30T09:26:19;15.60;68.20
46754;DHT22;32500;50.620;3.400;2024-01-30T09:28:45;15.50;68.90
46754;DHT22;32500;50.620;3.400;2024-01-30T09:31:11;15.50;68.80
46754;DHT22;32500;50.620;3.400;2024-01-30T09:33:38;15.50;68.70
46754;DHT22;32500;50.620;3.400;2024-01-30T09:36:05;15.60;68.90
46754;DHT22;32500;50.620;3.400;2024-01-30T09:38:30;15.50;68.70
46754;DHT22;32500;50.620;3.400;2024-01-30T09:40:59;15.60;68.80
46754;DHT22;32500;50.620;3.400;2024-01-30T09:43:26;15.60;68.80
46754;DHT22;32500;50.620;3.400;2024-01-30T09:45:57;15.50;68.70
46754;DHT22;32500;50.620;3.400;2024-01-30T09:48:25;15.60;68.70
46754;DHT22;32500;50.620;3.400;2024-01-30T09:50:52;15.70;68.30
46754;DHT22;32500;50.620;3.400;2024-01-30T09:53:19;15.80;68.00
46754;DHT22;32500;50.620;3.400;2024-01-30T09:55:45;15.90;67.60
46754;DHT22;32500;50.620;3.400;2024-01-30T09:58:12;15.90;67.40
46754;DHT22;32500;50.620;3.400;2024-01-30T10:00:38;15.90;67.30
46754;DHT22;32500;50.620;3.400;2024-01-30T10:03:04;15.90;67.30
46754;DHT22;32500;50.620;3.400;2024-01-30T10:05:31;15.90;67.10
46754;DHT22;32500;50.620;3.400;2024-01-30T10:07:59;15.90;67.00
46754;DHT22;32500;50.620;3.400;2024-01-30T10:10:25;15.90;66.90
46754;DHT22;32500;50.620;3.400;2024-01-30T10:12:51;15.90;66.90
46754;DHT22;32500;50.620;3.400;2024-01-30T10:15:18;15.90;66.70
46754;DHT22;32500;50.620;3.400;2024-01-30T10:17:45;15.90;66.70
46754;DHT22;32500;50.620;3.400;2024-01-30T10:20:12;16.00;66.70
46754;DHT22;32500;50.620;3.400;2024-01-30T10:22:37;15.90;66.50
46754;DHT22;32500;50.620;3.400;2024-01-30T10:25:05;16.00;66.50
46754;DHT22;32500;50.620;3.400;2024-01-30T10:27:30;16.00;66.50
46754;DHT22;32500;50.620;3.400;2024-01-30T10:29:56;16.00;66.40
46754;DHT22;32500;50.620;3.400;2024-01-30T10:32:22;16.00;66.40
46754;DHT22;32500;50.620;3.400;2024-01-30T10:34:48;16.00;66.30
46754;DHT22;32500;50.620;3.400;2024-01-30T10:37:15;16.00;66.20
46754;DHT22;32500;50.620;3.400;2024-01-30T10:39:45;16.00;66.20
46754;DHT22;32500;50.620;3.400;2024-01-30T10:42:17;16.00;66.10
46754;DHT22;32500;50.620;3.400;2024-01-30T10:47:27;16.00;66.20
46754;DHT22;32500;50.620;3.400;2024-01-30T10:49:54;16.00;66.20
46754;DHT22;32500;50.620;3.400;2024-01-30T10:52:20;16.00;66.60
46754;DHT22;32500;50.620;3.400;2024-01-30T10:54:46;16.00;67.00
46754;DHT22;32500;50.620;3.400;2024-01-30T10:57:13;16.00;67.00
46754;DHT22;32500;50.620;3.400;2024-01-30T10:59:41;16.10;66.90
46754;DHT22;32500;50.620;3.400;2024-01-30T11:02:14;16.10;66.80
46754;DHT22;32500;50.620;3.400;2024-01-30T11:04:43;16.10;66.90
46754;DHT22;32500;50.620;3.400;2024-01-30T11:07:24;16.10;66.90
46754;DHT22;32500;50.620;3.400;2024-01-30T11:09:51;16.10;66.80
46754;DHT22;32500;50.620;3.400;2024-01-30T11:12:21;16.10;66.60
46754;DHT22;32500;50.620;3.400;2024-01-30T11:14:48;16.10;66.50
46754;DHT22;32500;50.620;3.400;2024-01-30T11:17:13;16.10;66.30
46754;DHT22;32500;50.620;3.400;2024-01-30T11:19:41;16.10;66.20
46754;DHT22;32500;50.620;3.400;2024-01-30T11:22:07;16.10;66.10
46754;DHT22;32500;50.620;3.400;2024-01-30T11:24:40;16.10;66.00
46754;DHT22;32500;50.620;3.400;2024-01-30T11:27:09;16.10;66.70
46754;DHT22;32500;50.620;3.400;2024-01-30T11:29:36;16.10;65.80
46754;DHT22;32500;50.620;3.400;2024-01-30T11:32:02;16.10;65.70
46754;DHT22;32500;50.620;3.400;2024-01-30T11:34:28;16.10;65.70
46754;DHT22;32500;50.620;3.400;2024-01-30T11:36:58;16.20;65.60
46754;DHT22;32500;50.620;3.400;2024-01-30T11:39:25;16.20;65.60
46754;DHT22;32500;50.620;3.400;2024-01-30T11:41:52;16.30;65.50
46754;DHT22;32500;50.620;3.400;2024-01-30T11:44:22;16.20;65.40
46754;DHT22;32500;50.620;3.400;2024-01-30T11:46:49;16.20;65.40
46754;DHT22;32500;50.620;3.400;2024-01-30T11:49:15;16.20;65.30
46754;DHT22;32500;50.620;3.400;2024-01-30T11:51:41;16.20;65.30
46754;DHT22;32500;50.620;3.400;2024-01-30T11:54:07;16.20;65.20
46754;DHT22;32500;50.620;3.400;2024-01-30T11:56:33;16.20;65.10
46754;DHT22;32500;50.620;3.400;2024-01-30T11:58:59;16.20;65.00
46754;DHT22;32500;50.620;3.400;2024-01-30T12:01:26;16.20;65.20
46754;DHT22;32500;50.620;3.400;2024-01-30T12:03:52;16.20;65.20
46754;DHT22;32500;50.620;3.400;2024-01-30T12:06:18;16.20;65.10
46754;DHT22;32500;50.620;3.400;2024-01-30T12:08:58;16.20;65.00
46754;DHT22;32500;50.620;3.400;2024-01-30T12:11:25;16.20;65.00
46754;DHT22;32500;50.620;3.400;2024-01-30T12:13:52;16.20;65.10
46754;DHT22;32500;50.620;3.400;2024-01-30T12:16:18;16.20;65.10
46754;DHT22;32500;50.620;3.400;2024-01-30T12:18:44;16.20;65.10
46754;DHT22;32500;50.620;3.400;2024-01-30T12:21:09;16.10;65.00
46754;DHT22;32500;50.620;3.400;2024-01-30T12:23:35;16.20;65.10
46754;DHT22;32500;50.620;3.400;2024-01-30T12:26:01;16.10;65.00
46754;DHT22;32500;50.620;3.400;2024-01-30T12:28:29;16.10;65.00
46754;DHT22;32500;50.620;3.400;2024-01-30T12:31:04;16.10;65.00
46754;DHT22;32500;50.620;3.400;2024-01-30T12:33:30;16.20;65.20
46754;DHT22;32500;50.620;3.400;2024-01-30T12:35:57;16.10;65.50
46754;DHT22;32500;50.620;3.400;2024-01-30T12:38:24;16.10;65.70
46754;DHT22;32500;50.620;3.400;2024-01-30T12:40:54;16.10;66.00
46754;DHT22;32500;50.620;3.400;2024-01-30T12:43:20;16.10;65.90
46754;DHT22;32500;50.620;3.400;2024-01-30T12:45:47;16.20;66.00
46754;DHT22;32500;50.620;3.400;2024-01-30T12:48:12;16.20;65.90
46754;DHT22;32500;50.620;3.400;2024-01-30T12:50:38;16.30;65.70
46754;DHT22;32500;50.620;3.400;2024-01-30T12:53:04;16.30;65.70
46754;DHT22;32500;50.620;3.400;2024-01-30T12:55:30;16.30;66.40
46754;DHT22;32500;50.620;3.400;2024-01-30T12:57:56;16.30;65.60
46754;DHT22;32500;50.620;3.400;2024-01-30T13:00:22;16.40;65.40
46754;DHT22;32500;50.620;3.400;2024-01-30T13:02:48;16.40;65.30
46754;DHT22;32500;50.620;3.400;2024-01-30T13:05:17;16.40;65.20
46754;DHT22;32500;50.620;3.400;2024-01-30T13:07:42;16.40;65.20
46754;DHT22;32500;50.620;3.400;2024-01-30T13:10:08;16.50;65.20
46754;DHT22;32500;50.620;3.400;2024-01-30T13:12:34;16.50;65.00
46754;DHT22;32500;50.620;3.400;2024-01-30T13:15:00;16.50;64.90
46754;DHT22;32500;50.620;3.400;2024-01-30T13:17:27;16.50;65.00
46754;DHT22;32500;50.620;3.400;2024-01-30T13:19:53;16.50;65.20
46754;DHT22;32500;50.620;3.400;2024-01-30T13:22:19;16.50;65.00
46754;DHT22;32500;50.620;3.400;2024-01-30T13:24:47;16.50;64.80
46754;DHT22;32500;50.620;3.400;2024-01-30T13:27:12;16.50;64.80
46754;DHT22;32500;50.620;3.400;2024-01-30T13:29:38;16.50;64.60
46754;DHT22;32500;50.620;3.400;2024-01-30T13:32:04;16.50;64.70
46754;DHT22;32500;50.620;3.400;2024-01-30T13:34:30;16.50;64.70
46754;DHT22;32500;50.620;3.400;2024-01-30T13:36:55;16.50;64.70
46754;DHT22;32500;50.620;3.400;2024-01-30T13:39:22;16.50;64.70
46754;DHT22;32500;50.620;3.400;2024-01-30T13:41:48;16.60;64.60
46754;DHT22;32500;50.620;3.400;2024-01-30T13:44:15;16.60;64.40
46754;DHT22;32500;50.620;3.400;2024-01-30T13:46:42;16.60;64.40
46754;DHT22;32500;50.620;3.400;2024-01-30T13:49:08;16.60;64.40
46754;DHT22;32500;50.620;3.400;2024-01-30T13:51:33;16.70;64.30
46754;DHT22;32500;50.620;3.400;2024-01-30T13:53:59;16.70;64.00
46754;DHT22;32500;50.620;3.400;2024-01-30T13:56:25;16.70;64.10
46754;DHT22;32500;50.620;3.400;2024-01-30T13:58:52;16.70;64.20
46754;DHT22;32500;50.620;3.400;2024-01-30T14:01:18;16.70;64.30
46754;DHT22;32500;50.620;3.400;2024-01-30T14:03:44;16.70;64.30
46754;DHT22;32500;50.620;3.400;2024-01-30T14:06:11;16.70;64.30
46754;DHT22;32500;50.620;3.400;2024-01-30T14:08:36;16.70;64.20
46754;DHT22;32500;50.620;3.400;2024-01-30T14:11:02;16.80;64.10
46754;DHT22;32500;50.620;3.400;2024-01-30T14:13:29;16.80;64.00
46754;DHT22;32500;50.620;3.400;2024-01-30T14:15:56;16.80;63.90
46754;DHT22;32500;50.620;3.400;2024-01-30T14:18:22;16.90;63.70
46754;DHT22;32500;50.620;3.400;2024-01-30T14:20:47;16.90;63.70
46754;DHT22;32500;50.620;3.400;2024-01-30T14:23:13;16.90;63.60
46754;DHT22;32500;50.620;3.400;2024-01-30T14:25:39;16.80;63.70
46754;DHT22;32500;50.620;3.400;2024-01-30T14:28:04;16.90;63.80
46754;DHT22;32500;50.620;3.400;2024-01-30T14:30:30;16.80;63.80
46754;DHT22;32500;50.620;3.400;2024-01-30T14:32:56;16.80;63.80
46754;DHT22;32500;50.620;3.400;2024-01-30T14:35:21;16.80;63.80
46754;DHT22;32500;50.620;3.400;2024-01-30T14:37:47;16.80;63.90
46754;DHT22;32500;50.620;3.400;2024-01-30T14:40:13;16.80;64.00
46754;DHT22;32500;50.620;3.400;2024-01-30T14:42:38;16.80;64.10
46754;DHT22;32500;50.620;3.400;2024-01-30T14:45:07;16.90;64.00
46754;DHT22;32500;50.620;3.400;2024-01-30T14:47:34;16.90;63.80
46754;DHT22;32500;50.620;3.400;2024-01-30T14:50:01;16.90;63.70
46754;DHT22;32500;50.620;3.400;2024-01-30T14:52:27;16.90;63.60
46754;DHT22;32500;50.620;3.400;2024-01-30T14:54:52;16.90;64.30
46754;DHT22;32500;50.620;3.400;2024-01-30T14:57:18;17.00;63.70
46754;DHT22;32500;50.620;3.400;2024-01-30T14:59:44;17.00;63.80
46754;DHT22;32500;50.620;3.400;2024-01-30T15:02:09;17.00;63.70
46754;DHT22;32500;50.620;3.400;2024-01-30T15:04:35;17.00;63.60
46754;DHT22;32500;50.620;3.400;2024-01-30T15:07:01;17.00;63.70
46754;DHT22;32500;50.620;3.400;2024-01-30T15:09:27;17.00;63.70
46754;DHT22;32500;50.620;3.400;2024-01-30T15:11:52;17.00;63.70
46754;DHT22;32500;50.620;3.400;2024-01-30T15:14:18;17.10;63.80
46754;DHT22;32500;50.620;3.400;2024-01-30T15:16:44;17.10;63.70
46754;DHT22;32500;50.620;3.400;2024-01-30T15:19:10;17.10;63.70
46754;DHT22;32500;50.620;3.400;2024-01-30T15:21:36;17.10;63.70
46754;DHT22;32500;50.620;3.400;2024-01-30T15:24:02;17.10;63.80
46754;DHT22;32500;50.620;3.400;2024-01-30T15:26:28;17.10;63.80
46754;DHT22;32500;50.620;3.400;2024-01-30T15:28:54;17.10;63.90